Flight Track Log - Related Links

Times and Time Zones

All times are in EDT time to prevent confusion due to time zone crossing. See the SWA2955 flight status page for this flight to view local times or setup timezone preferences in your user account.

Time Position Orientation Groundspeed Altitude Reporting Facility
EDT Latitude Longitude Course Direction KTS MPH feet Rate Location/Type
Fri 10:47:14 AM 26.0769 -80.1344 80° East 164 189 800  Level Miami Center
Fri 10:48:03 AM 26.0844 -80.0861 80° East 214 246 2,200 1,938 Climbing Miami Center
Fri 10:48:19 AM 26.0933 -80.0631 67° East 197 227 2,900 2,270 Climbing Miami Center
Fri 10:49:17 AM 26.1519 -80.0578 North 282 325 5,000 2,168 Climbing Miami Center
Fri 10:50:18 AM 26.1961 -80.1308 304° West 273 314 7,200 1,636 Climbing Miami Center
Fri 10:51:07 AM 26.2094 -80.1958 283° West 286 329 8,000 672 Climbing Miami Center
Fri 10:52:14 AM 26.2322 -80.2914 285° West 281 323 8,500 1,500 Climbing Miami Center
Fri 10:53:19 AM 26.2531 -80.3869 284° West 288 331 11,300 2,832 Climbing Miami Center
Fri 10:54:19 AM 26.2714 -80.4803 282° West 328 377 14,400 3,200 Climbing Miami Center
Fri 10:55:19 AM 26.3125 -80.5928 292° West 346 398 17,700 2,850 Climbing Miami Center
Fri 10:56:19 AM 26.3708 -80.6781 307° West 370 426 20,100 2,500 Climbing Miami Center
Fri 10:57:19 AM 26.4606 -80.7644 319° Northwest 387 445 22,700 2,200 Climbing Miami Center
Fri 10:58:19 AM 26.5550 -80.8186 333° Northwest 412 474 24,500 2,050 Climbing Miami Center
Fri 10:59:19 AM 26.6425 -80.9075 318° Northwest 424 488 26,800 2,250 Climbing Miami Center
Fri 11:00:19 AM 26.6908 -81.0394 292° West 406 467 29,000 2,000 Climbing Miami Center
Fri 11:01:19 AM 26.7589 -81.1442 306° West 416 479 30,800 2,200 Climbing Miami Center
Fri 11:02:19 AM 26.8611 -81.2178 327° Northwest 416 479 33,400 2,150 Climbing Miami Center
Fri 11:03:19 AM 26.9592 -81.2889 327° Northwest 421 484 35,100 1,550 Climbing Miami Center
Fri 11:04:19 AM 27.0592 -81.3581 328° Northwest 421 484 36,500 1,150 Climbing Miami Center
Fri 11:05:19 AM 27.1572 -81.4319 326° Northwest 421 484 37,400 800 Climbing Miami Center
Fri 11:06:19 AM 27.2594 -81.5014 329° Northwest 426 490 38,100 1,000 Climbing Miami Center
Fri 11:07:19 AM 27.3594 -81.5708 328° Northwest 426 490 39,400 950 Climbing Miami Center
Fri 11:08:19 AM 27.4472 -81.6328 328° Northwest 421 484 40,000 300 Climbing Miami Center
Fri 11:09:19 AM 27.5450 -81.7047 327° Northwest 421 484 40,000  Level Miami Center
Fri 11:10:19 AM 27.6531 -81.7797 328° Northwest 421 484 40,000  Level Miami Center
Fri 11:11:19 AM 27.7508 -81.8497 328° Northwest 426 490 40,000  Level Miami Center
Fri 11:12:19 AM 27.8525 -81.9222 328° Northwest 421 484 40,000  Level Miami Center
Fri 11:14:40 AM 28.0764 -82.0953 326° Northwest 427 491 40,000  Level Jacksonville Center
Fri 11:15:40 AM 28.1689 -82.1769 322° Northwest 422 486 40,000  Level Jacksonville Center
Fri 11:16:40 AM 28.2589 -82.2586 321° Northwest 417 480 40,000  Level Jacksonville Center
Fri 11:17:40 AM 28.3533 -82.3431 322° Northwest 422 486 40,000  Level Jacksonville Center
Fri 11:18:40 AM 28.4453 -82.4275 321° Northwest 427 491 40,000  Level Jacksonville Center
Fri 11:20:00 AM 28.5400 -82.5387 304° West  Level FlightAware Approximate
Fri 11:20:40 AM 28.6233 -82.5992 304° West 427 491 40,000  Level Jacksonville Center
Fri 11:21:40 AM 28.6819 -82.7056 302° West 411 473 40,000  Level Jacksonville Center
Fri 11:22:40 AM 28.7383 -82.8097 302° West 397 457 40,000  Level Jacksonville Center
Fri 11:23:40 AM 28.7989 -82.9186 302° West 392 451 40,000  Level Jacksonville Center
Fri 11:24:40 AM 28.8594 -83.0253 303° West 397 457 40,000  Level Jacksonville Center
Fri 11:25:40 AM 28.9197 -83.1344 302° West 410 472 40,000  Level Jacksonville Center
Fri 11:26:40 AM 28.9800 -83.2414 303° West 410 472 40,000  Level Jacksonville Center
Fri 11:27:40 AM 29.0381 -83.3461 302° West 410 472 40,000  Level Jacksonville Center
Fri 11:28:40 AM 29.0983 -83.4533 303° West 410 472 40,000  Level Jacksonville Center
Fri 11:29:40 AM 29.1583 -83.5631 302° West 410 472 40,000  Level Jacksonville Center
Fri 11:30:40 AM 29.2203 -83.6706 303° West 410 472 40,000  Level Jacksonville Center
Fri 11:31:40 AM 29.2803 -83.7806 302° West 410 472 40,000  Level Jacksonville Center
Fri 11:32:40 AM 29.3397 -83.8908 302° West 410 472 40,000  Level Jacksonville Center
Fri 11:33:40 AM 29.3994 -83.9961 303° West 410 472 40,000  Level Jacksonville Center
Fri 11:34:40 AM 29.4569 -84.1042 301° West 405 466 40,000  Level Jacksonville Center
Fri 11:35:40 AM 29.5164 -84.2100 303° West 405 466 40,000  Level Jacksonville Center
Fri 11:36:40 AM 29.5758 -84.3206 302° West 410 472 40,000  Level Jacksonville Center
Fri 11:37:40 AM 29.6353 -84.4267 303° West 410 472 40,000  Level Jacksonville Center
Fri 11:38:40 AM 29.6944 -84.5375 302° West 405 466 40,000  Level Jacksonville Center
Fri 11:39:40 AM 29.7533 -84.6461 302° West 411 473 40,000  Level Jacksonville Center
Fri 11:40:40 AM 29.8186 -84.7550 305° West 411 473 40,000  Level Jacksonville Center
Fri 11:41:40 AM 29.8711 -84.8686 298° West 411 473 40,000  Level Jacksonville Center
Fri 11:42:40 AM 29.9322 -84.9778 303° West 411 473 40,000  Level Jacksonville Center
Fri 11:43:40 AM 29.9908 -85.0869 302° West 411 473 40,000  Level Jacksonville Center
Fri 11:44:40 AM 30.0494 -85.1961 302° West 411 473 40,000  Level Jacksonville Center
Fri 11:45:40 AM 30.1081 -85.3081 301° West 411 473 40,000  Level Jacksonville Center
Fri 11:46:40 AM 30.1664 -85.4128 303° West 406 467 40,000  Level Jacksonville Center
Fri 11:47:40 AM 30.2144 -85.5125 299° West 406 467 40,000  Level Jacksonville Center
Fri 11:48:40 AM 30.2792 -85.6203 305° West 406 467 40,000  Level Jacksonville Center
Fri 11:49:40 AM 30.3331 -85.7275 300° West 401 461 40,000  Level Jacksonville Center
Fri 11:50:40 AM 30.3872 -85.8328 301° West 388 447 40,000  Level Jacksonville Center
Fri 11:51:40 AM 30.4450 -85.9428 301° West 393 452 40,000  Level Jacksonville Center
Fri 11:52:40 AM 30.4989 -86.0508 300° West 393 452 40,000  Level Jacksonville Center
Fri 11:53:40 AM 30.5547 -86.1539 302° West 393 452 40,000  Level Jacksonville Center
Fri 11:54:40 AM 30.6103 -86.2619 301° West 393 452 40,000  Level Jacksonville Center
Fri 11:55:40 AM 30.6658 -86.3653 302° West 388 447 40,000  Level Jacksonville Center
Fri 11:56:40 AM 30.7194 -86.4711 301° West 388 447 40,000  Level Jacksonville Center
Fri 11:57:40 AM 30.7747 -86.5772 301° West 388 447 40,000  Level Jacksonville Center
Fri 11:58:40 AM 30.8256 -86.7000 296° West 388 447 40,000  Level Jacksonville Center
Fri 11:59:40 AM 30.8200 -86.8136 267° West 362 417 40,000  Level Jacksonville Center
Fri 12:00:40 PM 30.8058 -86.9292 262° West 353 406 40,000 -300 Level Jacksonville Center
Fri 12:01:40 PM 30.7856 -87.0419 258° West 353 406 39,400 -750 Descending Jacksonville Center
Fri 12:02:40 PM 30.7672 -87.1522 259° West 358 412 38,500 -884 Descending Jacksonville Center
Fri 12:04:50 PM 30.7283 -87.3758 259° West 351 404 36,600 -906 Descending Houston Center
Fri 12:05:52 PM 30.7064 -87.4942 258° West 365 420 35,600 -1,016 Descending Houston Center
Fri 12:06:54 PM 30.6783 -87.6400 257° West 380 437 34,500 -1,008 Descending Houston Center
Fri 12:07:57 PM 30.6528 -87.7650 257° West 395 455 33,500 -960 Descending Houston Center
Fri 12:08:59 PM 30.6311 -87.8892 259° West 394 453 32,500 -726 Descending Houston Center
Fri 12:10:01 PM 30.6078 -88.0161 258° West 399 459 32,000 -242 Descending Houston Center
Fri 12:11:03 PM 30.5842 -88.1403 258° West 395 455 32,000 -484 Level Houston Center
Fri 12:12:05 PM 30.5611 -88.2636 258° West 391 450 31,000 -968 Descending Houston Center
Fri 12:13:07 PM 30.5381 -88.3844 258° West 383 441 30,000 -1,113 Descending Houston Center
Fri 12:14:09 PM 30.5108 -88.5283 258° West 378 435 28,700 -1,113 Descending Houston Center
Fri 12:15:11 PM 30.4878 -88.6464 257° West 376 433 27,700 -968 Descending Houston Center
Fri 12:16:13 PM 30.4656 -88.7619 257° West 370 426 26,700 -960 Descending Houston Center
Fri 12:17:16 PM 30.4436 -88.8778 258° West 368 423 25,700 -1,056 Descending Houston Center
Fri 12:18:18 PM 30.4189 -89.0075 258° West 364 419 24,500 -1,452 Descending Houston Center
Fri 12:19:20 PM 30.3933 -89.1167 255° West 354 407 22,700 -1,839 Descending Houston Center
Fri 12:20:22 PM 30.3544 -89.2144 245° Southwest 336 387 20,700 -1,935 Descending Houston Center
Fri 12:21:24 PM 30.3203 -89.3106 248° West 328 377 18,700 -1,887 Descending Houston Center
Fri 12:22:26 PM 30.2864 -89.4025 247° West 316 364 16,800 -2,051 Descending Houston Center
Fri 12:22:43 PM 30.2728 -89.4403 247° West 307 353 16,000 -1,935 Descending Houston Center
Fri 12:23:28 PM 30.2522 -89.4933 246° West 309 356 14,800 -2,131 Descending Houston Center
Fri 12:24:30 PM 30.2058 -89.5997 243° Southwest 307 353 12,200 -1,790 Descending Houston Center
Fri 12:25:32 PM 30.1569 -89.6806 235° Southwest 305 351 11,100 -1,440 Descending Houston Center
Fri 12:26:35 PM 30.1142 -89.7542 236° Southwest 281 323 9,200 -1,852 Descending Houston Center
Fri 12:26:53 PM 30.0989 -89.7803 236° Southwest 275 316 8,600 -1,548 Descending Houston Center
Fri 12:27:37 PM 30.0772 -89.8344 245° Southwest 281 323 7,600 -1,377 Descending Houston Center
Fri 12:27:54 PM 30.0658 -89.8611 244° Southwest 280 322 7,200 -1,452 Descending Houston Center
Fri 12:28:39 PM 30.0475 -89.9164 249° West 278 320 6,100 -1,178 Descending Houston Center
Fri 12:29:41 PM 30.0167 -89.9953 246° West 274 315 5,100 -774 Descending Houston Center
Fri 12:30:43 PM 29.9903 -90.0653 246° West 258 297 4,500 -1,113 Descending Houston Center
Fri 12:31:45 PM 29.9653 -90.1344 247° West 217 250 2,800 -1,452 Descending Houston Center
Fri 12:32:47 PM 29.9736 -90.1808 282° West 180 207 1,500 -1,113 Descending Houston Center
Fri 12:33:49 PM 29.9836 -90.2261 284° West 158 182 500 -968 Descending Houston Center
Fri 12:36:00 PM 29.9833 -90.2500 245° Southwest  Level FlightAware Approximate
Fri 12:43:00 PM 29.9934 -90.2580 245° Southwest  Level Estimated

Login

Don't have an account? Register now (free) for customized features, flight alerts, and more!